Time;durP1;ratioP1;P1;durP2;ratioP2;P2;SDS_P1;SDS_P2;PMS_P1;PMS_P2;Temp;Humidity;BMP_temperature;BMP_pressure;BME280_temperature;BME280_humidity;BME280_pressure;Samples;Min_cycle;Max_cycle;Signal;HPM_P1;HPM_P2
2022/10/15 00:01:13;;;;;;;7.03;3.95;;;;;;;15.06;54.52;99778.03;4496857;31;34083;-64
2022/10/15 00:03:43;;;;;;;11.05;8.38;;;;;;;14.94;54.52;99782.69;4497244;31;34307;-66
2022/10/15 00:06:13;;;;;;;6.12;4.57;;;;;;;14.82;55.00;99775.75;4495717;31;33328;-65
2022/10/15 00:08:41;;;;;;;6.55;3.97;;;;;;;14.65;55.56;99770.06;4490237;31;33720;-65
2022/10/15 00:11:11;;;;;;;10.20;7.35;;;;;;;14.63;55.65;99784.66;4495301;31;35180;-64
2022/10/15 00:13:39;;;;;;;16.12;7.82;;;;;;;14.63;55.44;99776.56;4495783;31;33065;-65
2022/10/15 00:16:08;;;;;;;10.18;6.75;;;;;;;14.58;55.43;99777.00;4489530;31;33164;-65
2022/10/15 00:18:36;;;;;;;10.82;5.60;;;;;;;14.70;55.05;99780.41;4482037;31;32638;-65
2022/10/15 00:21:08;;;;;;;13.88;4.95;;;;;;;14.57;55.46;99774.44;4491965;31;35094;-66
2022/10/15 00:23:36;;;;;;;12.57;6.78;;;;;;;14.67;55.25;99784.25;4484227;31;32832;-65
2022/10/15 00:26:06;;;;;;;11.45;7.00;;;;;;;14.64;55.37;99776.44;4491956;31;33657;-65
2022/10/15 00:28:35;;;;;;;10.93;5.80;;;;;;;14.61;55.55;99773.19;4488166;31;32646;-65
2022/10/15 00:31:04;;;;;;;10.35;6.90;;;;;;;14.54;55.84;99780.09;4487919;31;37781;-65
2022/10/15 00:33:33;;;;;;;8.15;5.37;;;;;;;14.56;55.70;99772.75;4489525;31;32944;-65
2022/10/15 00:36:12;;;;;;;11.50;6.97;;;;;;;14.61;55.66;99770.50;4498391;31;33384;-65
2022/10/15 00:38:41;;;;;;;6.82;3.90;;;;;;;14.61;55.73;99765.09;4485202;31;33754;-65
2022/10/15 00:41:14;;;;;;;13.43;7.68;;;;;;;14.54;55.98;99769.31;4494492;31;33841;-65
2022/10/15 00:43:50;;;;;;;8.07;4.80;;;;;;;14.65;55.58;99761.97;4502643;31;33469;-65
2022/10/15 00:46:26;;;;;;;7.85;5.87;;;;;;;14.59;55.79;99767.91;4506060;31;33042;-65
2022/10/15 00:49:01;;;;;;;11.35;7.40;;;;;;;14.54;55.94;99763.94;4500563;31;34717;-66
2022/10/15 00:51:39;;;;;;;10.85;5.97;;;;;;;14.40;56.19;99751.69;4496327;31;32887;-65
2022/10/15 00:54:07;;;;;;;13.18;7.80;;;;;;;14.38;56.32;99743.78;4491065;31;32557;-66
2022/10/15 00:56:35;;;;;;;6.45;4.53;;;;;;;14.41;56.43;99748.00;4486730;31;34468;-66
2022/10/15 00:59:04;;;;;;;12.18;6.70;;;;;;;14.39;56.63;99750.84;4483557;31;32267;-65
2022/10/15 01:01:32;;;;;;;10.95;6.40;;;;;;;14.56;56.05;99752.03;4488721;31;34603;-65
2022/10/15 01:04:01;;;;;;;9.35;4.93;;;;;;;14.56;56.08;99745.81;4499755;31;34650;-66
2022/10/15 01:06:28;;;;;;;9.23;6.93;;;;;;;14.61;55.86;99749.78;4483356;32;33446;-65
2022/10/15 01:08:56;;;;;;;13.30;6.93;;;;;;;14.61;55.65;99746.25;4494494;31;33339;-65
2022/10/15 01:11:40;;;;;;;13.68;7.90;;;;;;;14.58;55.61;99747.38;4491078;31;33890;-65
2022/10/15 01:14:29;;;;;;;11.30;6.20;;;;;;;14.67;54.93;99737.59;4489614;31;33700;-65
2022/10/15 01:17:04;;;;;;;13.00;6.45;;;;;;;14.60;54.93;99742.69;4485634;31;32534;-65
2022/10/15 01:20:08;;;;;;;12.63;6.37;;;;;;;14.53;55.21;99744.25;4484742;31;33864;-65
2022/10/15 01:23:21;;;;;;;7.03;5.80;;;;;;;14.58;55.61;99741.13;4491113;31;33788;-66
2022/10/15 01:26:30;;;;;;;14.23;6.68;;;;;;;14.49;55.77;99745.47;4498582;31;32654;-66
2022/10/15 01:29:29;;;;;;;14.65;7.00;;;;;;;14.60;55.48;99736.44;4495402;31;33255;-67
2022/10/15 01:32:05;;;;;;;11.02;6.50;;;;;;;14.55;55.59;99736.88;4496137;31;34089;-67
2022/10/15 01:34:59;;;;;;;10.90;7.47;;;;;;;14.61;55.35;99741.72;4493586;31;35372;-67
2022/10/15 01:37:58;;;;;;;10.32;5.18;;;;;;;14.67;55.17;99729.53;4489042;31;34749;-67
2022/10/15 01:40:32;;;;;;;7.32;5.57;;;;;;;14.63;55.31;99726.25;4486658;31;33312;-67
2022/10/15 01:43:09;;;;;;;9.63;6.45;;;;;;;14.65;55.33;99726.97;4492346;31;34653;-67
2022/10/15 01:45:42;;;;;;;9.38;6.30;;;;;;;14.66;55.10;99725.09;4495754;31;34009;-67
2022/10/15 01:48:11;;;;;;;8.00;4.62;;;;;;;14.64;55.24;99724.41;4494126;31;33628;-67
2022/10/15 01:50:45;;;;;;;10.07;6.60;;;;;;;14.59;55.39;99735.59;4486037;31;31806;-67
2022/10/15 01:53:16;;;;;;;10.30;6.50;;;;;;;14.70;55.15;99729.22;4492725;31;33653;-67
2022/10/15 01:55:44;;;;;;;7.90;4.57;;;;;;;14.49;55.47;99720.41;4495295;31;32465;-66
2022/10/15 01:58:13;;;;;;;8.02;6.07;;;;;;;14.58;55.21;99724.97;4495384;31;33742;-67
2022/10/15 02:00:41;;;;;;;11.45;6.15;;;;;;;14.59;55.34;99727.53;4495600;31;33122;-67
2022/10/15 02:03:09;;;;;;;8.32;5.97;;;;;;;14.59;55.62;99732.06;4480927;31;34537;-67
2022/10/15 02:05:40;;;;;;;16.27;7.05;;;;;;;14.55;55.90;99728.81;4489325;31;33851;-67
2022/10/15 02:08:19;;;;;;;15.15;8.98;;;;;;;14.54;55.93;99737.88;4485467;31;35096;-67
2022/10/15 02:11:04;;;;;;;14.32;6.90;;;;;;;14.54;56.08;99735.19;4486735;31;33218;-67
2022/10/15 02:13:59;;;;;;;7.65;5.07;;;;;;;14.45;55.67;99725.22;4483975;31;34922;-66
2022/10/15 02:16:42;;;;;;;7.65;4.40;;;;;;;14.47;55.48;99725.91;4489670;31;33734;-66
2022/10/15 02:19:42;;;;;;;7.15;4.35;;;;;;;14.47;55.18;99728.59;4481033;31;33581;-67
2022/10/15 02:22:19;;;;;;;15.60;6.25;;;;;;;14.39;55.31;99732.00;4481300;31;34284;-67
2022/10/15 02:25:12;;;;;;;8.63;5.47;;;;;;;14.39;55.15;99731.16;4481276;31;33640;-66
2022/10/15 02:27:40;;;;;;;14.85;5.53;;;;;;;14.31;55.10;99734.53;4481577;31;33721;-66
2022/10/15 02:30:09;;;;;;;4.90;4.12;;;;;;;14.31;55.10;99726.44;4480523;31;34452;-67
2022/10/15 02:32:37;;;;;;;12.20;5.25;;;;;;;14.24;54.94;99724.47;4485907;31;33342;-67
2022/10/15 02:35:07;;;;;;;15.95;4.47;;;;;;;14.30;54.82;99723.91;4481011;31;33898;-66
2022/10/15 02:37:39;;;;;;;23.62;6.47;;;;;;;14.36;54.95;99716.12;4490059;31;33914;-65
2022/10/15 02:40:07;;;;;;;9.20;7.12;;;;;;;14.42;54.89;99712.88;4492660;31;33746;-65
2022/10/15 02:42:35;;;;;;;12.48;6.78;;;;;;;14.39;55.29;99715.00;4482556;31;33376;-65
2022/10/15 02:45:07;;;;;;;10.32;7.57;;;;;;;14.36;55.29;99713.44;4486852;31;32699;-67
2022/10/15 02:47:34;;;;;;;10.68;5.65;;;;;;;14.47;55.09;99712.44;4493920;31;34992;-66
2022/10/15 02:50:03;;;;;;;9.93;4.55;;;;;;;14.44;55.46;99716.28;4494628;31;33656;-67
2022/10/15 02:52:30;;;;;;;8.00;5.85;;;;;;;14.47;55.37;99714.28;4497085;31;33244;-67
2022/10/15 02:54:58;;;;;;;11.85;5.72;;;;;;;14.52;55.05;99717.47;4496268;31;32286;-67
2022/10/15 02:57:26;;;;;;;11.40;6.12;;;;;;;14.60;54.73;99713.06;4498193;31;34819;-67
2022/10/15 02:59:53;;;;;;;12.15;6.47;;;;;;;14.49;56.27;99707.78;4500332;31;32733;-67
2022/10/15 03:02:21;;;;;;;11.93;6.37;;;;;;;14.61;56.32;99708.53;4498538;31;34712;-67
2022/10/15 03:04:49;;;;;;;9.18;4.90;;;;;;;14.59;55.67;99700.59;4488834;31;33628;-67
2022/10/15 03:07:17;;;;;;;9.77;6.57;;;;;;;14.65;55.44;99700.03;4482924;31;33797;-67
2022/10/15 03:09:46;;;;;;;9.35;6.40;;;;;;;14.73;55.32;99690.38;4494992;31;33588;-67
2022/10/15 03:12:14;;;;;;;6.97;4.57;;;;;;;14.55;56.92;99696.47;4497145;31;33145;-67
2022/10/15 03:14:41;;;;;;;15.52;6.90;;;;;;;14.64;56.58;99695.63;4495438;31;33722;-67
2022/10/15 03:17:09;;;;;;;9.38;6.22;;;;;;;14.72;56.49;99699.44;4487646;31;32886;-67
2022/10/15 03:19:38;;;;;;;11.65;6.43;;;;;;;14.80;56.56;99703.16;4492806;31;33627;-67
2022/10/15 03:22:05;;;;;;;13.82;8.95;;;;;;;14.86;56.54;99699.88;4496546;31;34577;-67
2022/10/15 03:24:39;;;;;;;10.27;7.00;;;;;;;14.84;56.40;99690.22;4496052;31;34406;-67
2022/10/15 03:27:07;;;;;;;6.80;4.82;;;;;;;14.84;56.97;99690.22;4496271;31;34764;-67
2022/10/15 03:29:34;;;;;;;10.63;7.45;;;;;;;14.88;57.41;99691.62;4495214;31;33882;-67
2022/10/15 03:32:02;;;;;;;12.10;7.10;;;;;;;14.94;56.97;99699.16;4497086;31;33445;-68
2022/10/15 03:34:30;;;;;;;15.75;7.50;;;;;;;14.97;56.63;99706.94;4482204;31;33834;-68
2022/10/15 03:36:59;;;;;;;9.02;6.03;;;;;;;15.05;55.69;99703.53;4488513;31;35333;-68
2022/10/15 03:39:27;;;;;;;11.73;6.53;;;;;;;14.93;55.14;99707.38;4487312;31;34621;-68
2022/10/15 03:41:55;;;;;;;9.02;5.55;;;;;;;14.98;54.74;99703.25;4493049;31;33330;-68
2022/10/15 03:44:23;;;;;;;11.20;6.32;;;;;;;14.95;54.75;99705.38;4483250;31;33859;-68
2022/10/15 03:46:56;;;;;;;9.43;6.15;;;;;;;14.92;55.35;99706.53;4485171;31;33792;-68
2022/10/15 03:49:27;;;;;;;8.32;6.32;;;;;;;14.90;54.46;99703.13;4485097;31;35206;-68
2022/10/15 03:51:55;;;;;;;13.85;8.00;;;;;;;14.78;55.06;99705.13;4491019;31;33544;-68
2022/10/15 03:54:23;;;;;;;11.10;7.25;;;;;;;14.65;55.76;99707.25;4486323;31;33574;-68
2022/10/15 03:56:51;;;;;;;14.98;7.55;;;;;;;14.79;54.82;99714.91;4492197;31;33869;-68
2022/10/15 03:59:19;;;;;;;10.48;5.43;;;;;;;14.68;55.30;99713.22;4493766;31;34962;-68
2022/10/15 04:01:54;;;;;;;7.45;5.57;;;;;;;14.64;54.60;99701.03;4495255;31;33008;-68
2022/10/15 04:04:22;;;;;;;8.60;5.65;;;;;;;14.68;54.40;99702.44;4496383;31;33712;-68
2022/10/15 04:06:50;;;;;;;6.47;4.45;;;;;;;14.66;53.98;99704.41;4481320;31;35152;-68
2022/10/15 04:09:18;;;;;;;13.43;6.82;;;;;;;14.55;53.64;99692.94;4482061;31;34247;-68
2022/10/15 04:11:46;;;;;;;14.13;8.02;;;;;;;14.63;54.02;99693.91;4484563;31;33496;-68
2022/10/15 04:14:14;;;;;;;17.55;7.60;;;;;;;14.63;54.63;99690.38;4489097;31;34808;-68
2022/10/15 04:16:41;;;;;;;7.82;5.20;;;;;;;14.62;53.78;99689.53;4490514;31;34079;-68
2022/10/15 04:19:10;;;;;;;10.73;5.65;;;;;;;14.57;53.45;99691.78;4492404;31;32543;-68
2022/10/15 04:21:38;;;;;;;5.75;4.47;;;;;;;14.54;53.91;99692.09;4492979;31;34403;-68
2022/10/15 04:24:05;;;;;;;14.68;7.60;;;;;;;14.56;53.73;99692.78;4486922;31;34772;-68
2022/10/15 04:26:33;;;;;;;14.82;8.52;;;;;;;14.61;53.93;99695.91;4494965;31;33856;-68
2022/10/15 04:29:01;;;;;;;7.47;5.60;;;;;;;14.56;55.06;99698.16;4496808;31;33816;-68
2022/10/15 04:31:29;;;;;;;11.50;6.45;;;;;;;14.64;55.15;99701.03;4497439;31;33459;-68
2022/10/15 04:33:57;;;;;;;7.87;5.40;;;;;;;14.61;55.28;99704.00;4498271;31;35053;-68
2022/10/15 04:36:25;;;;;;;10.82;5.87;;;;;;;14.66;54.42;99707.09;4492381;31;34151;-68
2022/10/15 04:38:53;;;;;;;14.57;5.72;;;;;;;14.65;53.71;99708.09;4497382;31;34119;-68
2022/10/15 04:41:21;;;;;;;9.65;5.82;;;;;;;14.57;53.33;99709.78;4488231;31;33408;-67
2022/10/15 04:43:49;;;;;;;12.27;5.90;;;;;;;14.43;52.97;99711.03;4492915;31;33974;-68
2022/10/15 04:46:18;;;;;;;10.85;6.40;;;;;;;14.42;52.47;99710.19;4495089;31;34020;-67
2022/10/15 04:48:46;;;;;;;17.33;8.90;;;;;;;14.39;52.51;99707.78;4487141;31;32358;-67
2022/10/15 04:51:16;;;;;;;12.68;5.93;;;;;;;14.33;53.19;99704.78;4490031;31;33876;-67
2022/10/15 04:53:44;;;;;;;7.80;5.60;;;;;;;14.28;53.54;99702.50;4486228;31;35440;-67
2022/10/15 04:56:16;;;;;;;7.30;5.12;;;;;;;14.26;53.68;99700.97;4489480;31;34073;-67
2022/10/15 04:58:46;;;;;;;8.55;4.97;;;;;;;14.23;54.16;99706.63;4483557;31;32866;-67
2022/10/15 05:01:16;;;;;;;9.90;5.85;;;;;;;14.25;54.58;99707.31;4489846;31;34275;-67
2022/10/15 05:03:46;;;;;;;14.73;8.35;;;;;;;14.21;54.90;99717.50;4482885;31;34754;-67
2022/10/15 05:06:16;;;;;;;15.40;6.65;;;;;;;14.32;55.13;99712.03;4484501;31;34787;-67
2022/10/15 05:08:44;;;;;;;7.75;5.70;;;;;;;14.34;55.32;99709.19;4496390;31;34794;-67
2022/10/15 05:11:19;;;;;;;8.48;6.55;;;;;;;14.39;54.47;99713.16;4492147;31;33025;-68
2022/10/15 05:13:47;;;;;;;9.85;6.37;;;;;;;14.41;53.96;99707.62;4486782;31;33708;-66
2022/10/15 05:16:16;;;;;;;7.80;6.37;;;;;;;14.29;53.97;99712.31;4495743;31;35020;-68
2022/10/15 05:18:46;;;;;;;8.75;5.97;;;;;;;14.27;53.67;99711.56;4496879;31;33929;-66
2022/10/15 05:21:15;;;;;;;11.20;6.60;;;;;;;14.24;54.11;99714.53;4490208;31;32445;-68
2022/10/15 05:23:43;;;;;;;9.05;6.20;;;;;;;14.18;54.72;99713.25;4493888;31;34947;-67
2022/10/15 05:26:14;;;;;;;9.80;6.50;;;;;;;14.29;54.65;99722.22;4494517;31;33459;-67
2022/10/15 05:28:42;;;;;;;8.98;6.05;;;;;;;14.32;54.25;99721.94;4484265;31;32579;-68
2022/10/15 05:31:16;;;;;;;11.10;6.30;;;;;;;14.30;54.03;99721.22;4497221;31;34548;-67
2022/10/15 05:33:50;;;;;;;22.80;9.43;;;;;;;14.28;53.88;99715.97;4491171;31;32675;-67
2022/10/15 05:36:25;;;;;;;8.82;5.87;;;;;;;14.31;53.78;99717.53;4489305;31;35162;-67
2022/10/15 05:38:57;;;;;;;9.30;5.68;;;;;;;14.13;55.12;99710.13;4484340;31;32475;-68
2022/10/15 05:41:25;;;;;;;10.95;7.18;;;;;;;14.21;54.80;99710.28;4493135;31;33449;-68
2022/10/15 05:43:55;;;;;;;12.60;7.37;;;;;;;14.29;54.71;99706.91;4491892;31;32481;-65
2022/10/15 05:46:23;;;;;;;8.43;5.60;;;;;;;14.28;55.63;99704.34;4490825;31;32422;-66
2022/10/15 05:48:53;;;;;;;9.77;7.25;;;;;;;14.41;55.55;99710.31;4490393;31;33621;-66
2022/10/15 05:51:22;;;;;;;11.07;8.75;;;;;;;14.31;56.57;99709.44;4493200;31;32061;-66
2022/10/15 05:53:52;;;;;;;16.50;8.85;;;;;;;14.47;56.75;99714.28;4497544;31;32959;-66
2022/10/15 05:56:21;;;;;;;14.50;10.70;;;;;;;14.52;56.71;99707.53;4486047;31;33820;-66
2022/10/15 05:58:49;;;;;;;12.27;8.82;;;;;;;14.63;56.37;99704.69;4489417;31;32449;-66
2022/10/15 06:01:17;;;;;;;18.45;9.55;;;;;;;14.69;56.19;99714.06;4494452;31;34715;-65
2022/10/15 06:03:50;;;;;;;15.57;10.63;;;;;;;14.72;56.27;99712.94;4495819;31;33793;-66
2022/10/15 06:06:20;;;;;;;18.08;10.35;;;;;;;14.67;57.02;99710.66;4494085;31;34969;-66
2022/10/15 06:08:49;;;;;;;19.58;10.75;;;;;;;14.81;57.29;99728.25;4495254;31;34154;-66
2022/10/15 06:11:16;;;;;;;18.27;13.23;;;;;;;14.84;57.17;99726.13;4491810;31;32284;-66
2022/10/15 06:13:45;;;;;;;17.87;11.45;;;;;;;14.92;57.84;99730.78;4494133;31;32920;-66
2022/10/15 06:16:14;;;;;;;15.40;10.57;;;;;;;14.88;58.62;99740.16;4503309;31;33910;-66
2022/10/15 06:18:47;;;;;;;19.62;9.98;;;;;;;14.98;58.58;99740.97;4498319;31;35141;-66
2022/10/15 06:21:15;;;;;;;16.55;10.55;;;;;;;14.89;59.26;99750.81;4494986;31;34971;-66
2022/10/15 06:23:42;;;;;;;17.42;11.05;;;;;;;15.17;58.64;99748.19;4499763;31;33794;-66
2022/10/15 06:26:10;;;;;;;18.10;10.73;;;;;;;15.28;58.40;99741.78;4499872;31;34042;-66
2022/10/15 06:28:38;;;;;;;16.00;9.65;;;;;;;15.24;58.91;99753.88;4494266;31;34210;-66
2022/10/15 06:31:06;;;;;;;11.27;7.85;;;;;;;15.44;58.73;99752.84;4495948;31;34398;-65
2022/10/15 06:33:34;;;;;;;14.45;9.35;;;;;;;15.24;59.35;99752.03;4487675;31;33824;-66
2022/10/15 06:36:03;;;;;;;20.48;9.98;;;;;;;15.33;59.27;99751.16;4492811;31;34057;-65
2022/10/15 06:38:31;;;;;;;16.52;9.15;;;;;;;15.44;59.58;99746.59;4488587;31;33574;-66
2022/10/15 06:40:59;;;;;;;20.30;9.75;;;;;;;15.41;59.84;99753.16;4487418;31;34544;-66
2022/10/15 06:43:27;;;;;;;11.35;7.12;;;;;;;14.94;60.65;99754.91;4487540;31;32533;-65
2022/10/15 06:45:59;;;;;;;11.20;6.62;;;;;;;15.06;60.89;99757.31;4486414;31;34090;-66
2022/10/15 06:48:27;;;;;;;13.75;8.70;;;;;;;15.15;60.86;99758.28;4491445;31;33583;-66
2022/10/15 06:50:57;;;;;;;15.32;8.10;;;;;;;15.07;61.18;99764.37;4498073;31;33494;-66
2022/10/15 06:53:24;;;;;;;13.15;8.38;;;;;;;15.22;60.99;99762.13;4493365;31;32685;-65
2022/10/15 06:55:58;;;;;;;10.93;7.43;;;;;;;15.18;60.94;99762.53;4500983;31;34031;-66
2022/10/15 06:58:26;;;;;;;16.75;7.30;;;;;;;15.19;60.79;99766.94;4507012;31;33647;-66
2022/10/15 07:01:04;;;;;;;11.02;8.40;;;;;;;15.14;61.30;99778.16;4498949;31;31870;-66
2022/10/15 07:03:32;;;;;;;18.52;9.10;;;;;;;15.23;61.34;99776.44;4501646;31;34834;-66
2022/10/15 07:06:03;;;;;;;9.05;5.60;;;;;;;15.53;60.39;99784.31;4500993;31;33906;-66
2022/10/15 07:08:31;;;;;;;13.18;8.23;;;;;;;15.23;62.18;99781.84;4500401;31;34754;-66
2022/10/15 07:11:06;;;;;;;9.55;6.60;;;;;;;15.60;61.22;99785.47;4500032;31;33742;-66
2022/10/15 07:13:33;;;;;;;10.07;5.57;;;;;;;15.97;59.75;99775.72;4501612;31;34713;-66
2022/10/15 07:16:07;;;;;;;17.17;8.88;;;;;;;16.06;59.51;99777.53;4505444;31;34634;-66
2022/10/15 07:18:36;;;;;;;10.63;7.22;;;;;;;16.06;58.83;99772.97;4512464;31;34869;-66
2022/10/15 07:21:05;;;;;;;9.68;6.43;;;;;;;15.68;59.62;99776.66;4513694;31;31953;-66
2022/10/15 07:23:33;;;;;;;10.38;6.43;;;;;;;16.04;58.68;99769.56;4495287;31;33859;-66
2022/10/15 07:26:00;;;;;;;13.48;8.07;;;;;;;16.22;58.23;99776.88;4486114;31;34099;-66
2022/10/15 07:28:28;;;;;;;10.23;6.53;;;;;;;16.34;58.60;99772.97;4489116;31;32432;-66
2022/10/15 07:31:00;;;;;;;13.50;8.00;;;;;;;16.27;58.08;99769.16;4498710;31;33417;-66
2022/10/15 07:33:28;;;;;;;8.38;5.62;;;;;;;16.39;58.28;99759.00;4506553;31;32768;-66
2022/10/15 07:36:00;;;;;;;13.57;6.97;;;;;;;16.06;58.55;99764.03;4490529;31;32460;-66
2022/10/15 07:38:28;;;;;;;13.73;7.37;;;;;;;16.18;58.18;99762.84;4485486;31;33640;-66
2022/10/15 07:41:00;;;;;;;9.77;6.78;;;;;;;16.29;58.31;99767.16;4490520;31;33421;-65
2022/10/15 07:43:28;;;;;;;10.23;7.70;;;;;;;16.58;58.13;99766.97;4496627;31;33851;-66
2022/10/15 07:45:56;;;;;;;11.93;6.50;;;;;;;16.67;57.25;99762.53;4491889;31;33718;-66
2022/10/15 07:48:24;;;;;;;16.65;9.18;;;;;;;16.44;57.59;99765.66;4486751;31;34009;-66
2022/10/15 07:51:02;;;;;;;8.80;5.55;;;;;;;16.76;57.00;99764.34;4489030;31;34269;-66
2022/10/15 07:53:31;;;;;;;12.40;8.80;;;;;;;16.81;56.07;99771.97;4492333;31;33534;-66
2022/10/15 07:56:07;;;;;;;10.68;7.55;;;;;;;16.82;56.59;99773.66;4496011;31;34000;-66
2022/10/15 07:58:37;;;;;;;11.80;7.22;;;;;;;16.96;56.59;99768.56;4485907;31;35218;-66
2022/10/15 08:01:06;;;;;;;13.48;8.13;;;;;;;16.95;56.80;99783.09;4490034;31;33453;-66
2022/10/15 08:03:34;;;;;;;13.02;6.85;;;;;;;17.29;56.04;99784.22;4492536;31;32521;-66
2022/10/15 08:06:04;;;;;;;11.75;7.50;;;;;;;17.04;56.35;99783.16;4483657;31;33295;-66
2022/10/15 08:08:33;;;;;;;12.32;7.70;;;;;;;16.95;55.41;99784.94;4486078;31;34535;-66
2022/10/15 08:11:18;;;;;;;15.63;9.00;;;;;;;17.11;55.09;99792.34;4487328;31;32293;-66
2022/10/15 08:13:47;;;;;;;8.27;6.22;;;;;;;17.11;55.19;99795.06;4485058;31;33620;-66
2022/10/15 08:16:15;;;;;;;12.13;6.80;;;;;;;17.09;55.26;99797.94;4495352;31;34924;-66
2022/10/15 08:18:47;;;;;;;12.63;7.20;;;;;;;17.52;54.34;99790.81;4485235;31;33657;-65
2022/10/15 08:21:15;;;;;;;9.65;6.55;;;;;;;17.32;55.03;99797.44;4494475;31;33285;-65
2022/10/15 08:23:43;;;;;;;8.70;6.62;;;;;;;17.43;55.07;99789.06;4487656;31;34625;-65
2022/10/15 08:26:10;;;;;;;11.63;5.85;;;;;;;17.76;53.78;99790.16;4500821;31;34019;-65
2022/10/15 08:28:38;;;;;;;14.90;8.48;;;;;;;16.68;56.32;99794.78;4492673;31;33629;-65
2022/10/15 08:31:06;;;;;;;11.68;7.25;;;;;;;17.37;54.70;99793.28;4491409;31;31890;-65
2022/10/15 08:33:35;;;;;;;14.77;8.82;;;;;;;17.65;54.16;99790.41;4488433;31;33673;-66
2022/10/15 08:36:06;;;;;;;14.32;6.47;;;;;;;17.85;53.44;99791.94;4488889;31;35022;-65
2022/10/15 08:38:33;;;;;;;15.10;8.88;;;;;;;17.40;54.58;99797.53;4491873;31;34128;-65
2022/10/15 08:41:02;;;;;;;16.77;8.95;;;;;;;17.86;53.85;99796.34;4486508;31;32981;-66
2022/10/15 08:43:39;;;;;;;14.27;9.07;;;;;;;17.82;53.00;99796.81;4487945;31;35143;-65
2022/10/15 08:46:19;;;;;;;12.65;6.85;;;;;;;17.91;53.17;99796.72;4486974;31;33553;-67
2022/10/15 08:48:53;;;;;;;19.00;8.17;;;;;;;17.86;54.33;99798.19;4477435;31;33349;-65
2022/10/15 08:51:37;;;;;;;13.27;6.85;;;;;;;17.97;53.23;99791.66;4492054;31;33510;-65
2022/10/15 08:54:05;;;;;;;9.98;6.25;;;;;;;18.16;52.82;99791.41;4499289;31;34842;-66
2022/10/15 08:56:35;;;;;;;14.27;9.25;;;;;;;17.62;53.29;99793.44;4505957;31;34042;-65
2022/10/15 08:59:37;;;;;;;15.20;8.88;;;;;;;17.70;52.93;99794.34;4497520;31;32881;-66
2022/10/15 09:02:11;;;;;;;18.52;7.00;;;;;;;17.85;52.47;99799.22;4484727;31;32231;-66
2022/10/15 09:04:51;;;;;;;13.13;7.65;;;;;;;18.26;51.75;99794.81;4487855;31;33716;-67
2022/10/15 09:07:41;;;;;;;17.37;8.13;;;;;;;17.87;52.65;99781.78;4495576;31;34927;-69
2022/10/15 09:10:22;;;;;;;14.00;7.28;;;;;;;17.70;53.42;99788.94;4490927;31;33806;-68
2022/10/15 09:13:15;;;;;;;10.07;6.55;;;;;;;17.52;53.67;99790.81;4477897;31;130226;-70
2022/10/15 09:16:32;;;;;;;17.23;8.25;;;;;;;18.07;52.53;99795.06;4486067;31;33888;-67
2022/10/15 09:19:04;;;;;;;12.45;7.28;;;;;;;18.01;52.50;99810.13;4473281;31;35175;-67
2022/10/15 09:21:34;;;;;;;9.18;4.87;;;;;;;18.02;52.48;99808.28;4488326;31;34817;-65
2022/10/15 09:24:02;;;;;;;13.20;6.70;;;;;;;18.54;51.73;99813.56;4481957;31;32229;-65
2022/10/15 09:26:49;;;;;;;14.20;8.50;;;;;;;18.30;51.47;99811.63;4488919;31;34983;-65
2022/10/15 09:29:23;;;;;;;12.88;6.57;;;;;;;18.78;50.58;99813.69;4494912;31;35223;-65
2022/10/15 09:32:18;;;;;;;15.23;8.25;;;;;;;18.65;50.62;99816.00;4489614;31;33575;-65
2022/10/15 09:34:51;;;;;;;14.32;7.32;;;;;;;18.99;50.21;99812.34;4482750;31;33529;-65
2022/10/15 09:37:24;;;;;;;11.40;6.57;;;;;;;18.42;51.79;99814.88;4485381;31;33698;-66
2022/10/15 09:40:23;;;;;;;13.73;6.87;;;;;;;18.88;50.84;99805.41;4473486;32;34507;-65
2022/10/15 09:42:51;;;;;;;12.57;6.93;;;;;;;18.99;50.60;99801.50;4492332;31;34140;-65
2022/10/15 09:45:22;;;;;;;11.80;7.50;;;;;;;18.67;51.04;99800.41;4492034;31;32387;-65
2022/10/15 09:47:51;;;;;;;9.27;6.40;;;;;;;18.75;51.16;99805.88;4496118;31;34968;-66
2022/10/15 09:50:18;;;;;;;11.23;6.10;;;;;;;18.62;51.70;99802.78;4492338;31;34197;-66
2022/10/15 09:53:09;;;;;;;11.82;7.90;;;;;;;18.58;51.47;99799.50;4494603;31;33887;-65
2022/10/15 09:55:47;;;;;;;14.02;7.82;;;;;;;18.87;50.95;99797.41;4488125;31;33509;-66
2022/10/15 09:58:22;;;;;;;12.05;7.75;;;;;;;18.83;51.13;99797.75;4488385;31;35295;-65
2022/10/15 10:00:57;;;;;;;10.15;5.87;;;;;;;18.22;51.76;99803.47;4482633;31;34193;-65
2022/10/15 10:03:31;;;;;;;8.07;5.45;;;;;;;18.71;50.92;99793.63;4494067;31;34671;-65
2022/10/15 10:06:10;;;;;;;9.65;5.43;;;;;;;19.14;49.35;99794.41;4500582;31;32635;-65
2022/10/15 10:08:50;;;;;;;10.02;6.25;;;;;;;18.62;50.70;99800.91;4489941;31;33635;-66
2022/10/15 10:11:18;;;;;;;9.50;5.25;;;;;;;18.64;50.86;99798.00;4495562;31;35016;-66
2022/10/15 10:13:54;;;;;;;9.05;5.75;;;;;;;18.94;50.23;99793.88;4481235;31;33886;-65
2022/10/15 10:16:22;;;;;;;7.28;3.90;;;;;;;18.63;50.67;99791.75;4483677;31;33483;-65
2022/10/15 10:19:08;;;;;;;9.68;6.53;;;;;;;18.32;51.45;99790.63;4498192;31;33586;-66
2022/10/15 10:21:38;;;;;;;7.95;5.62;;;;;;;18.74;50.61;99787.06;4494973;31;34206;-65
2022/10/15 10:24:19;;;;;;;7.30;4.47;;;;;;;18.84;50.00;99790.47;4494843;31;34693;-66
2022/10/15 10:26:47;;;;;;;10.65;5.95;;;;;;;18.83;50.07;99784.19;4485542;31;33626;-66
2022/10/15 10:29:19;;;;;;;9.77;6.05;;;;;;;18.51;50.88;99782.22;4496712;31;33990;-65
2022/10/15 10:31:59;;;;;;;6.47;4.50;;;;;;;19.01;49.68;99785.94;4475473;31;33709;-66
2022/10/15 10:34:31;;;;;;;9.38;5.03;;;;;;;19.34;48.20;99789.50;4488674;31;32772;-66
2022/10/15 10:37:02;;;;;;;8.68;5.18;;;;;;;19.20;48.62;99777.47;4503133;31;34364;-66
2022/10/15 10:39:32;;;;;;;5.28;3.78;;;;;;;19.24;49.03;99767.13;4482025;31;32552;-65
2022/10/15 10:42:01;;;;;;;7.70;5.07;;;;;;;19.07;48.67;99766.28;4491338;31;33753;-65
2022/10/15 10:44:34;;;;;;;6.72;4.55;;;;;;;19.64;47.68;99763.53;4490444;31;35351;-66
2022/10/15 10:47:23;;;;;;;9.52;5.85;;;;;;;19.51;47.70;99764.00;4493423;31;34155;-66
2022/10/15 10:49:57;;;;;;;6.37;3.72;;;;;;;19.26;48.37;99759.63;4495420;31;33787;-66
2022/10/15 10:52:37;;;;;;;8.30;5.55;;;;;;;19.59;47.72;99757.75;4480781;31;32699;-65
2022/10/15 10:55:15;;;;;;;5.82;3.53;;;;;;;19.03;48.78;99763.03;4493070;31;32586;-66
2022/10/15 10:57:53;;;;;;;8.93;4.78;;;;;;;19.65;47.38;99759.81;4484178;31;33471;-65
2022/10/15 11:00:40;;;;;;;9.20;5.15;;;;;;;19.80;46.89;99761.78;4488536;31;31859;-65
2022/10/15 11:03:34;;;;;;;11.40;4.32;;;;;;;19.69;47.67;99763.03;4488223;31;32852;-66
2022/10/15 11:06:08;;;;;;;6.82;4.10;;;;;;;19.51;47.70;99760.47;4490494;31;33720;-65
2022/10/15 11:09:09;;;;;;;7.70;4.40;;;;;;;19.54;48.07;99750.09;4496472;31;33524;-65
2022/10/15 11:11:44;;;;;;;8.25;4.60;;;;;;;19.63;46.42;99750.94;4498076;31;34604;-65
2022/10/15 11:14:30;;;;;;;12.15;5.37;;;;;;;19.29;47.25;99746.59;4481996;31;33727;-65
2022/10/15 11:17:04;;;;;;;12.20;6.18;;;;;;;19.73;46.90;99748.91;4494588;31;33638;-66
2022/10/15 11:19:46;;;;;;;7.25;4.60;;;;;;;19.68;46.46;99756.75;4492990;31;33412;-66
2022/10/15 11:22:55;;;;;;;7.72;4.85;;;;;;;19.98;45.59;99732.53;4485798;31;34928;-65
2022/10/15 11:25:32;;;;;;;8.10;4.60;;;;;;;19.70;46.88;99732.97;4481719;31;32567;-65
2022/10/15 11:28:27;;;;;;;8.73;3.90;;;;;;;19.52;47.66;99725.00;4492916;31;34065;-65
2022/10/15 11:31:01;;;;;;;7.78;4.78;;;;;;;19.57;47.64;99708.19;4500392;31;34505;-65
2022/10/15 11:33:29;;;;;;;9.23;5.68;;;;;;;19.41;47.73;99711.78;4497129;31;32518;-66
2022/10/15 11:36:13;;;;;;;9.60;5.18;;;;;;;19.54;47.44;99708.53;4500187;31;33769;-65
2022/10/15 11:38:47;;;;;;;14.38;4.68;;;;;;;19.69;46.85;99704.13;4489047;31;32478;-66
2022/10/15 11:41:28;;;;;;;8.83;4.63;;;;;;;20.10;46.51;99698.53;4492659;31;31978;-65
2022/10/15 11:44:25;;;;;;;7.53;4.75;;;;;;;19.31;47.38;99706.56;4497998;31;34073;-66
2022/10/15 11:47:09;;;;;;;8.13;4.40;;;;;;;19.54;47.55;99700.41;4493177;31;32909;-65
2022/10/15 11:49:43;;;;;;;7.75;5.25;;;;;;;19.47;47.26;99693.97;4488868;31;33824;-66
2022/10/15 11:52:23;;;;;;;8.45;5.22;;;;;;;19.72;47.28;99695.63;4491837;31;32788;-66
2022/10/15 11:55:22;;;;;;;6.18;4.22;;;;;;;20.38;45.82;99688.00;4495919;31;33845;-66
2022/10/15 11:57:53;;;;;;;11.50;5.00;;;;;;;19.97;46.18;99693.69;4484998;31;36054;-66